Time;durP1;ratioP1;P1;durP2;ratioP2;P2;SDS_P1;SDS_P2;PMS_P1;PMS_P2;Temp;Humidity;BMP_temperature;BMP_pressure;BME280_temperature;BME280_humidity;BME280_pressure;Samples;Min_cycle;Max_cycle;Signal;HPM_P1;HPM_P2
2021/01/20 10:01:13;;;;;;;5.63;3.25;;;;;;;;;;5067369;23;20451;-63
2021/01/20 10:03:39;;;;;;;3.53;2.40;;;;;;;;;;5001044;28;20038;-62
2021/01/20 10:06:04;;;;;;;6.47;3.95;;;;;;;;;;5014255;28;20466;-62
2021/01/20 10:08:30;;;;;;;6.40;2.30;;;;;;;;;;5008713;28;20681;-61
2021/01/20 10:10:56;;;;;;;5.30;2.67;;;;;;;;;;5008277;28;20030;-61
2021/01/20 10:13:22;;;;;;;9.77;3.58;;;;;;;;;;5001537;28;20458;-61
2021/01/20 10:15:47;;;;;;;7.47;4.72;;;;;;;;;;5014081;28;20588;-63
2021/01/20 10:18:13;;;;;;;5.70;3.03;;;;;;;;;;5013747;28;20032;-61
2021/01/20 10:20:38;;;;;;;13.93;5.68;;;;;;;;;;5005682;28;20121;-63
2021/01/20 10:23:03;;;;;;;7.68;5.13;;;;;;;;;;5001902;28;20045;-63
2021/01/20 10:25:32;;;;;;;11.27;7.72;;;;;;;;;;4999605;28;20033;-63
2021/01/20 10:27:59;;;;;;;6.65;5.47;;;;;;;;;;5004194;28;20030;-62
2021/01/20 10:30:25;;;;;;;7.20;5.30;;;;;;;;;;5004754;28;20063;-62
2021/01/20 10:32:51;;;;;;;9.65;3.85;;;;;;;;;;5000989;28;20037;-63
2021/01/20 10:35:19;;;;;;;9.68;5.93;;;;;;;;;;4994360;28;20029;-62
2021/01/20 10:37:44;;;;;;;14.00;4.30;;;;;;;;;;5001500;28;20026;-66
2021/01/20 10:40:09;;;;;;;19.98;5.65;;;;;;;;;;5003680;28;20240;-64
2021/01/20 10:42:35;;;;;;;15.65;4.72;;;;;;;;;;5004261;28;20655;-66
2021/01/20 10:45:00;;;;;;;7.05;5.15;;;;;;;;;;5002020;28;20175;-65
2021/01/20 10:47:25;;;;;;;6.35;5.03;;;;;;;;;;4998318;28;20534;-65
2021/01/20 10:49:51;;;;;;;15.70;6.80;;;;;;;;;;4998922;28;20030;-66
2021/01/20 10:52:16;;;;;;;9.60;5.28;;;;;;;;;;4999640;28;20030;-66
2021/01/20 10:54:41;;;;;;;4.60;3.85;;;;;;;;;;4996365;28;20050;-66
2021/01/20 10:57:08;;;;;;;6.13;4.40;;;;;;;;;;4998020;28;20041;-64
2021/01/20 10:59:41;;;;;;;10.50;6.57;;;;;;;;;;4991946;28;20138;-64
2021/01/20 11:02:06;;;;;;;12.57;4.30;;;;;;;;;;4997887;28;20030;-63
2021/01/20 11:04:31;;;;;;;8.38;5.28;;;;;;;;;;4994897;28;20026;-66
2021/01/20 11:06:57;;;;;;;11.65;5.68;;;;;;;;;;4998519;28;20038;-66
2021/01/20 11:09:22;;;;;;;10.40;6.35;;;;;;;;;;5001905;28;20052;-61
2021/01/20 11:11:47;;;;;;;7.68;4.65;;;;;;;;;;5007755;28;20438;-65
2021/01/20 11:14:12;;;;;;;12.15;5.85;;;;;;;;;;5003888;28;20049;-66
2021/01/20 11:16:38;;;;;;;7.03;5.75;;;;;;;;;;4999067;28;20030;-64
2021/01/20 11:19:03;;;;;;;7.22;5.55;;;;;;;;;;4999338;28;20045;-66
2021/01/20 11:21:28;;;;;;;7.03;4.60;;;;;;;;;;4995511;28;20038;-63
2021/01/20 11:23:53;;;;;;;8.65;5.65;;;;;;;;;;5003512;28;20038;-64
2021/01/20 11:26:19;;;;;;;6.60;5.05;;;;;;;;;;5003443;28;20551;-69
2021/01/20 11:28:44;;;;;;;8.75;5.10;;;;;;;;;;5001602;28;20549;-67
2021/01/20 11:31:09;;;;;;;9.68;4.85;;;;;;;;;;4998580;28;20058;-63
2021/01/20 11:33:35;;;;;;;9.43;5.78;;;;;;;;;;4995110;28;20443;-63
2021/01/20 11:36:00;;;;;;;7.28;6.55;;;;;;;;;;4998963;28;20052;-63
2021/01/20 11:38:25;;;;;;;14.40;10.63;;;;;;;;;;4996379;28;20550;-60
2021/01/20 11:40:51;;;;;;;13.50;9.52;;;;;;;;;;4996471;28;20030;-63
2021/01/20 11:43:16;;;;;;;13.20;10.27;;;;;;;;;;4998734;28;20430;-61
2021/01/20 11:45:42;;;;;;;32.22;13.55;;;;;;;;;;4999228;28;20101;-60
2021/01/20 11:48:07;;;;;;;20.55;13.25;;;;;;;;;;5002821;28;20039;-62
2021/01/20 11:50:33;;;;;;;8.75;6.60;;;;;;;;;;5005505;28;20371;-62
2021/01/20 11:52:58;;;;;;;20.75;12.15;;;;;;;;;;5009838;28;20049;-62
2021/01/20 11:55:24;;;;;;;14.77;7.28;;;;;;;;;;5010484;28;20041;-63
2021/01/20 11:57:49;;;;;;;7.65;6.90;;;;;;;;;;5005201;28;20492;-62
2021/01/20 12:00:15;;;;;;;34.00;30.63;;;;;;;;;;5009669;28;20124;-62
2021/01/20 12:02:41;;;;;;;19.65;17.58;;;;;;;;;;5010250;28;20448;-61
2021/01/20 12:05:11;;;;;;;10.38;7.82;;;;;;;;;;5009916;28;20054;-62
2021/01/20 12:07:36;;;;;;;12.07;10.98;;;;;;;;;;5003744;28;20097;-62
2021/01/20 12:10:03;;;;;;;9.18;7.15;;;;;;;;;;5010382;28;20073;-62
2021/01/20 12:12:29;;;;;;;14.40;8.50;;;;;;;;;;5008236;28;20072;-61
2021/01/20 12:14:54;;;;;;;10.52;8.10;;;;;;;;;;5006103;28;20045;-62
2021/01/20 12:17:19;;;;;;;8.32;5.75;;;;;;;;;;5006285;28;20496;-62
2021/01/20 12:19:45;;;;;;;9.27;4.85;;;;;;;;;;4999283;28;20034;-62
2021/01/20 12:22:10;;;;;;;10.20;5.53;;;;;;;;;;4992554;28;20023;-63
2021/01/20 12:24:35;;;;;;;5.88;5.10;;;;;;;;;;4986987;28;20033;-63
2021/01/20 12:27:01;;;;;;;14.40;6.05;;;;;;;;;;4997030;28;20046;-61
2021/01/20 12:29:26;;;;;;;7.65;6.28;;;;;;;;;;4990108;28;20034;-64
2021/01/20 12:31:51;;;;;;;11.05;8.13;;;;;;;;;;4987913;28;20033;-61
2021/01/20 12:34:17;;;;;;;8.32;6.97;;;;;;;;;;5007334;28;20105;-61
2021/01/20 12:36:44;;;;;;;11.18;9.93;;;;;;;;;;5007943;28;20125;-61
2021/01/20 12:39:09;;;;;;;12.05;6.88;;;;;;;;;;5019162;28;20517;-61
2021/01/20 12:41:34;;;;;;;11.82;5.90;;;;;;;;;;4998495;28;20021;-61
2021/01/20 12:44:00;;;;;;;12.18;7.85;;;;;;;;;;5000248;28;20080;-61
2021/01/20 12:46:25;;;;;;;11.07;7.53;;;;;;;;;;5001591;28;20041;-61
2021/01/20 12:48:50;;;;;;;16.55;10.73;;;;;;;;;;5002159;28;20081;-61
2021/01/20 12:51:16;;;;;;;15.77;10.73;;;;;;;;;;4993816;28;20030;-61
2021/01/20 12:53:41;;;;;;;17.20;11.00;;;;;;;;;;5002641;28;20127;-61
2021/01/20 12:56:06;;;;;;;13.25;8.95;;;;;;;;;;4997304;28;20053;-61
2021/01/20 12:58:31;;;;;;;19.88;11.27;;;;;;;;;;5001765;28;20130;-61
2021/01/20 13:00:57;;;;;;;7.95;6.90;;;;;;;;;;5006706;28;20061;-60
2021/01/20 13:03:25;;;;;;;13.18;10.35;;;;;;;;;;5002968;28;20029;-60
2021/01/20 13:05:50;;;;;;;12.23;10.93;;;;;;;;;;5004273;28;20389;-62
2021/01/20 13:08:15;;;;;;;130.82;101.43;;;;;;;;;;5007462;28;20030;-63
2021/01/20 13:10:41;;;;;;;133.48;105.88;;;;;;;;;;5007355;28;20062;-51
2021/01/20 13:13:06;;;;;;;133.80;116.45;;;;;;;;;;5007552;28;20738;-46
2021/01/20 13:15:33;;;;;;;26.40;14.82;;;;;;;;;;5007999;28;20042;-50
2021/01/20 13:17:59;;;;;;;22.65;20.23;;;;;;;;;;5006723;28;20040;-51
2021/01/20 13:20:24;;;;;;;20.15;13.88;;;;;;;;;;5007734;28;20526;-51
2021/01/20 13:22:49;;;;;;;26.58;24.38;;;;;;;;;;5007679;28;20034;-62
2021/01/20 13:25:17;;;;;;;22.15;14.10;;;;;;;;;;4997925;28;20040;-64
2021/01/20 13:27:42;;;;;;;22.13;19.92;;;;;;;;;;5007546;28;20029;-62
2021/01/20 13:30:08;;;;;;;10.75;8.23;;;;;;;;;;5003096;28;20034;-62
2021/01/20 13:32:34;;;;;;;19.85;17.83;;;;;;;;;;4994825;28;20085;-64
2021/01/20 13:34:59;;;;;;;20.52;13.00;;;;;;;;;;5003503;28;20054;-62
2021/01/20 13:37:24;;;;;;;9.57;7.60;;;;;;;;;;5013972;28;20390;-62
2021/01/20 13:39:50;;;;;;;17.77;8.48;;;;;;;;;;5013634;28;20099;-62
2021/01/20 13:42:15;;;;;;;13.45;8.35;;;;;;;;;;5013744;28;20022;-63
2021/01/20 13:44:41;;;;;;;19.02;8.23;;;;;;;;;;5014002;28;20120;-63
2021/01/20 13:47:06;;;;;;;13.23;6.50;;;;;;;;;;5014117;28;20064;-62
2021/01/20 13:49:32;;;;;;;13.10;8.23;;;;;;;;;;5013676;28;20037;-64
2021/01/20 13:51:57;;;;;;;7.72;5.88;;;;;;;;;;5013961;28;20030;-62
2021/01/20 13:54:23;;;;;;;8.43;6.68;;;;;;;;;;5013306;28;20536;-63
2021/01/20 13:56:48;;;;;;;14.32;7.53;;;;;;;;;;5011435;28;20045;-64
2021/01/20 13:59:13;;;;;;;8.40;7.40;;;;;;;;;;5007062;28;20462;-62
2021/01/20 14:01:38;;;;;;;16.42;7.32;;;;;;;;;;5013635;28;20041;-63
2021/01/20 14:04:04;;;;;;;11.07;7.32;;;;;;;;;;5013894;28;20036;-63
2021/01/20 14:06:30;;;;;;;14.15;6.45;;;;;;;;;;5001093;28;20042;-62
2021/01/20 14:08:55;;;;;;;6.88;6.10;;;;;;;;;;4998523;28;20026;-64
2021/01/20 14:11:21;;;;;;;7.50;6.15;;;;;;;;;;5003242;28;20079;-64
2021/01/20 14:13:46;;;;;;;9.43;6.38;;;;;;;;;;4998154;28;20034;-63
2021/01/20 14:16:11;;;;;;;12.23;6.95;;;;;;;;;;4992895;28;20034;-67
2021/01/20 14:18:37;;;;;;;14.25;6.80;;;;;;;;;;4997659;28;20371;-65
2021/01/20 14:21:02;;;;;;;14.70;6.30;;;;;;;;;;5000760;28;20037;-66
2021/01/20 14:23:27;;;;;;;8.77;5.85;;;;;;;;;;4998635;28;20042;-64
2021/01/20 14:25:52;;;;;;;11.43;8.15;;;;;;;;;;4997623;28;20109;-64
2021/01/20 14:28:18;;;;;;;20.42;18.30;;;;;;;;;;5005589;28;20052;-64
2021/01/20 14:30:43;;;;;;;14.48;8.70;;;;;;;;;;5009824;28;20038;-64
2021/01/20 14:33:08;;;;;;;13.10;10.18;;;;;;;;;;5005427;28;20057;-64
2021/01/20 14:35:34;;;;;;;11.15;8.68;;;;;;;;;;5009079;28;20065;-63
2021/01/20 14:37:59;;;;;;;14.27;12.95;;;;;;;;;;5010489;28;20030;-66
2021/01/20 14:40:26;;;;;;;15.27;8.73;;;;;;;;;;5001209;28;20061;-67
2021/01/20 14:42:52;;;;;;;18.25;11.85;;;;;;;;;;5010388;28;20026;-65
2021/01/20 14:45:17;;;;;;;17.02;8.98;;;;;;;;;;5009083;28;20076;-66
2021/01/20 14:47:42;;;;;;;30.08;22.05;;;;;;;;;;5008420;28;20033;-67
2021/01/20 14:50:08;;;;;;;22.42;18.33;;;;;;;;;;5004868;28;20034;-66
2021/01/20 14:52:33;;;;;;;34.55;26.42;;;;;;;;;;5007098;28;20032;-65
2021/01/20 14:54:59;;;;;;;16.70;14.98;;;;;;;;;;5006324;28;20049;-62
2021/01/20 14:57:24;;;;;;;13.93;12.05;;;;;;;;;;5006993;28;20022;-62
2021/01/20 14:59:49;;;;;;;11.73;10.07;;;;;;;;;;5006446;28;20061;-64
2021/01/20 15:02:15;;;;;;;10.90;7.90;;;;;;;;;;5004925;28;20032;-62
2021/01/20 15:04:40;;;;;;;8.63;6.95;;;;;;;;;;5000540;28;20046;-62
2021/01/20 15:07:05;;;;;;;19.75;10.20;;;;;;;;;;5006415;28;20463;-62
2021/01/20 15:09:31;;;;;;;23.95;10.85;;;;;;;;;;4992132;28;20045;-65
2021/01/20 15:11:56;;;;;;;14.70;9.55;;;;;;;;;;4995038;28;20463;-60
2021/01/20 15:14:21;;;;;;;13.80;11.82;;;;;;;;;;4993130;28;20056;-65
2021/01/20 15:16:47;;;;;;;82.40;66.05;;;;;;;;;;4995886;28;20383;-61
2021/01/20 15:19:12;;;;;;;14.60;12.85;;;;;;;;;;4999289;28;20105;-61
2021/01/20 15:21:37;;;;;;;10.85;9.32;;;;;;;;;;4989208;28;20022;-63
2021/01/20 15:24:03;;;;;;;25.05;19.50;;;;;;;;;;5001168;28;20371;-60
2021/01/20 15:26:28;;;;;;;31.10;26.00;;;;;;;;;;5006014;28;20076;-62
2021/01/20 15:28:54;;;;;;;139.57;126.78;;;;;;;;;;5004212;28;20556;-62
2021/01/20 15:31:19;;;;;;;20.63;18.08;;;;;;;;;;5003293;28;20449;-62
2021/01/20 15:33:45;;;;;;;25.13;18.42;;;;;;;;;;5005771;28;20193;-63
2021/01/20 15:36:11;;;;;;;24.35;19.98;;;;;;;;;;5005788;28;20049;-63
2021/01/20 15:38:38;;;;;;;16.67;9.23;;;;;;;;;;5005690;28;20760;-61
2021/01/20 15:41:03;;;;;;;36.30;30.65;;;;;;;;;;5005282;28;20112;-63
2021/01/20 15:43:28;;;;;;;39.10;35.55;;;;;;;;;;5006196;28;20467;-63
2021/01/20 15:45:57;;;;;;;37.38;34.10;;;;;;;;;;5005994;28;20458;-59
2021/01/20 15:48:23;;;;;;;17.85;15.88;;;;;;;;;;5002012;28;20054;-60
2021/01/20 15:50:49;;;;;;;21.38;19.52;;;;;;;;;;5004742;28;20117;-64
2021/01/20 15:53:14;;;;;;;8.90;7.13;;;;;;;;;;5005927;28;20033;-62
2021/01/20 15:55:39;;;;;;;10.80;9.75;;;;;;;;;;5005516;28;20085;-63
2021/01/20 15:58:05;;;;;;;12.27;10.88;;;;;;;;;;5021004;28;20088;-63
2021/01/20 16:00:30;;;;;;;12.35;8.90;;;;;;;;;;5003404;28;20062;-63
2021/01/20 16:02:56;;;;;;;16.27;10.25;;;;;;;;;;5003768;28;20764;-63
2021/01/20 16:05:21;;;;;;;10.00;7.60;;;;;;;;;;5003671;28;20037;-61
2021/01/20 16:07:48;;;;;;;14.98;10.70;;;;;;;;;;5005190;28;20026;-63
2021/01/20 16:10:14;;;;;;;23.70;15.20;;;;;;;;;;5002508;28;20141;-62
2021/01/20 16:12:40;;;;;;;15.98;7.43;;;;;;;;;;5005626;28;20036;-60
2021/01/20 16:15:09;;;;;;;15.00;11.13;;;;;;;;;;5003420;28;20088;-61
2021/01/20 16:17:38;;;;;;;9.63;5.78;;;;;;;;;;5005219;28;20026;-62
2021/01/20 16:20:07;;;;;;;17.85;5.07;;;;;;;;;;5004821;28;20034;-62
2021/01/20 16:22:32;;;;;;;8.65;5.00;;;;;;;;;;5005216;28;20077;-64
2021/01/20 16:24:58;;;;;;;6.13;5.55;;;;;;;;;;5003024;28;20765;-64
2021/01/20 16:27:23;;;;;;;7.57;5.10;;;;;;;;;;5005309;28;20032;-60
2021/01/20 16:29:48;;;;;;;12.50;4.35;;;;;;;;;;4997164;28;20034;-64
2021/01/20 16:32:14;;;;;;;15.73;5.10;;;;;;;;;;5002659;28;20467;-60
2021/01/20 16:34:39;;;;;;;11.90;9.98;;;;;;;;;;5004462;28;20049;-58
2021/01/20 16:37:05;;;;;;;7.00;5.65;;;;;;;;;;5004492;28;20032;-60
2021/01/20 16:39:30;;;;;;;19.02;17.13;;;;;;;;;;5004564;28;20107;-57
2021/01/20 16:41:56;;;;;;;14.57;9.38;;;;;;;;;;4995891;28;20433;-61
2021/01/20 16:44:21;;;;;;;14.10;12.43;;;;;;;;;;4995237;28;20026;-56
2021/01/20 16:46:46;;;;;;;6.13;5.45;;;;;;;;;;4978615;28;20038;-64
2021/01/20 16:49:12;;;;;;;9.45;7.32;;;;;;;;;;5000220;28;20415;-65
2021/01/20 16:51:37;;;;;;;6.40;5.57;;;;;;;;;;5004867;28;20125;-62
2021/01/20 16:54:03;;;;;;;4.70;3.78;;;;;;;;;;4993293;28;20066;-61
2021/01/20 16:56:28;;;;;;;9.38;6.75;;;;;;;;;;4978129;28;20061;-66
2021/01/20 16:58:53;;;;;;;11.93;10.57;;;;;;;;;;4971366;28;20030;-62
2021/01/20 17:01:19;;;;;;;13.55;10.43;;;;;;;;;;4981360;28;20062;-67
2021/01/20 17:03:44;;;;;;;8.55;7.57;;;;;;;;;;4979164;28;20037;-66
2021/01/20 17:06:09;;;;;;;18.65;11.68;;;;;;;;;;4980833;28;20045;-65
2021/01/20 17:08:36;;;;;;;13.98;11.50;;;;;;;;;;4979924;28;20026;-62
2021/01/20 17:11:01;;;;;;;9.63;7.78;;;;;;;;;;4976294;28;20140;-65
2021/01/20 17:13:26;;;;;;;6.47;5.70;;;;;;;;;;4980146;28;20069;-67
2021/01/20 17:15:52;;;;;;;11.30;7.18;;;;;;;;;;4975678;28;20117;-60
2021/01/20 17:18:18;;;;;;;7.65;6.32;;;;;;;;;;4979095;28;20775;-48
2021/01/20 17:20:43;;;;;;;8.68;5.72;;;;;;;;;;4986000;28;20356;-50
2021/01/20 17:23:08;;;;;;;8.07;6.15;;;;;;;;;;4984726;28;20053;-48
2021/01/20 17:25:33;;;;;;;10.68;8.77;;;;;;;;;;4985451;28;20022;-47
2021/01/20 17:27:59;;;;;;;7.30;6.22;;;;;;;;;;4984415;28;20058;-47
2021/01/20 17:30:24;;;;;;;8.10;7.22;;;;;;;;;;4980248;28;20696;-38
2021/01/20 17:45:49;;;;;;;5.35;4.47;;;;;;;;;;5102089;27;20369;-41
2021/01/20 17:48:14;;;;;;;13.13;5.82;;;;;;;;;;5101419;28;20618;-41
2021/01/20 17:50:39;;;;;;;5.85;4.43;;;;;;;;;;5100019;28;20032;-44
2021/01/20 17:53:05;;;;;;;4.63;3.80;;;;;;;;;;5083577;28;20196;-41
2021/01/20 17:55:32;;;;;;;4.60;3.70;;;;;;;;;;5083802;28;20020;-44
2021/01/20 17:57:57;;;;;;;7.82;3.92;;;;;;;;;;5084303;28;20059;-42
2021/01/20 18:00:23;;;;;;;15.77;4.70;;;;;;;;;;5080894;28;20534;-43
2021/01/20 18:02:48;;;;;;;5.03;4.15;;;;;;;;;;5084090;28;20768;-41
2021/01/20 18:05:13;;;;;;;4.80;4.30;;;;;;;;;;5082153;28;20032;-39
2021/01/20 18:07:39;;;;;;;11.25;4.72;;;;;;;;;;5083229;28;20020;-40
2021/01/20 18:10:05;;;;;;;5.07;4.57;;;;;;;;;;5084018;28;20046;-40
2021/01/20 18:12:30;;;;;;;9.15;4.78;;;;;;;;;;5086169;28;20585;-40
2021/01/20 18:14:55;;;;;;;6.60;5.28;;;;;;;;;;5084610;28;20040;-42
2021/01/20 18:17:21;;;;;;;7.97;4.97;;;;;;;;;;5087114;28;20405;-42
2021/01/20 18:19:47;;;;;;;7.72;5.28;;;;;;;;;;5084847;28;20066;-43
2021/01/20 18:22:12;;;;;;;9.82;8.95;;;;;;;;;;5086931;28;20027;-40
2021/01/20 18:24:37;;;;;;;16.70;6.80;;;;;;;;;;5087498;28;20036;-42
2021/01/20 18:27:03;;;;;;;9.20;7.00;;;;;;;;;;5086911;28;20024;-41
2021/01/20 18:29:28;;;;;;;7.82;6.20;;;;;;;;;;5089079;28;20433;-41
2021/01/20 18:31:54;;;;;;;8.63;5.22;;;;;;;;;;5087900;28;20042;-42
2021/01/20 18:34:20;;;;;;;7.15;4.03;;;;;;;;;;5089910;28;20163;-46
2021/01/20 18:36:46;;;;;;;11.65;4.90;;;;;;;;;;5089364;28;20024;-40
2021/01/20 18:39:11;;;;;;;8.48;4.30;;;;;;;;;;5091080;28;20035;-41
2021/01/20 18:41:36;;;;;;;4.60;4.18;;;;;;;;;;5089812;28;20031;-42
2021/01/20 18:44:02;;;;;;;6.43;5.20;;;;;;;;;;5095810;28;20075;-45
2021/01/20 18:46:27;;;;;;;12.57;6.00;;;;;;;;;;5097199;28;20517;-44
2021/01/20 18:48:53;;;;;;;12.07;6.68;;;;;;;;;;5094337;28;20028;-41
2021/01/20 18:51:18;;;;;;;17.00;9.13;;;;;;;;;;5095442;28;20098;-42
2021/01/20 18:53:43;;;;;;;12.30;9.00;;;;;;;;;;5094590;28;20040;-43
2021/01/20 18:56:09;;;;;;;12.85;9.23;;;;;;;;;;5096479;28;20027;-44
2021/01/20 18:58:34;;;;;;;17.92;9.30;;;;;;;;;;5074959;28;20082;-42
2021/01/20 19:00:59;;;;;;;7.18;5.97;;;;;;;;;;5096073;28;20012;-42
2021/01/20 19:03:26;;;;;;;19.88;12.63;;;;;;;;;;5096755;28;20050;-43
2021/01/20 19:05:51;;;;;;;10.55;9.35;;;;;;;;;;5094754;28;20016;-39
2021/01/20 19:08:16;;;;;;;10.18;9.20;;;;;;;;;;5093254;28;20385;-44
2021/01/20 19:10:43;;;;;;;8.80;5.40;;;;;;;;;;5092577;28;20013;-42
2021/01/20 19:13:08;;;;;;;12.23;7.28;;;;;;;;;;5085768;28;20229;-42
2021/01/20 19:15:34;;;;;;;7.68;6.07;;;;;;;;;;5089136;28;20674;-41
2021/01/20 19:17:59;;;;;;;6.55;5.22;;;;;;;;;;5091083;28;20462;-43
2021/01/20 19:20:24;;;;;;;9.27;6.63;;;;;;;;;;5093321;28;20378;-39
2021/01/20 19:22:50;;;;;;;14.20;9.35;;;;;;;;;;5092472;28;20404;-38
2021/01/20 19:25:16;;;;;;;6.13;4.68;;;;;;;;;;5091451;28;20031;-41
2021/01/20 19:27:42;;;;;;;5.15;3.17;;;;;;;;;;5074911;28;20141;-41
2021/01/20 19:30:07;;;;;;;7.80;5.07;;;;;;;;;;5094702;28;20073;-40
2021/01/20 19:32:33;;;;;;;7.00;5.38;;;;;;;;;;5090497;28;20422;-42
2021/01/20 19:34:58;;;;;;;13.10;6.72;;;;;;;;;;5092934;28;20659;-41
2021/01/20 19:37:23;;;;;;;14.73;11.10;;;;;;;;;;5094267;28;20468;-41
2021/01/20 19:39:49;;;;;;;10.35;6.53;;;;;;;;;;5092607;28;20044;-42
2021/01/20 19:42:14;;;;;;;8.80;5.97;;;;;;;;;;5091182;28;20051;-42
2021/01/20 19:44:39;;;;;;;6.18;4.10;;;;;;;;;;5088682;28;20048;-42
2021/01/20 19:47:06;;;;;;;7.80;5.47;;;;;;;;;;5090483;28;20024;-41
2021/01/20 19:49:31;;;;;;;11.85;6.22;;;;;;;;;;5090425;28;20066;-39
2021/01/20 19:51:57;;;;;;;14.30;9.35;;;;;;;;;;5089259;28;20131;-40
2021/01/20 19:54:22;;;;;;;13.85;8.90;;;;;;;;;;5091841;28;20410;-41
2021/01/20 19:56:48;;;;;;;12.05;8.77;;;;;;;;;;5086608;28;20064;-42
2021/01/20 19:59:13;;;;;;;28.80;24.52;;;;;;;;;;5094103;28;20024;-40
2021/01/20 20:01:40;;;;;;;12.52;10.80;;;;;;;;;;5092356;28;20020;-42
2021/01/20 20:04:06;;;;;;;9.57;7.50;;;;;;;;;;5082015;28;20083;-40
2021/01/20 20:06:31;;;;;;;17.42;11.18;;;;;;;;;;5096902;28;20847;-42
2021/01/20 20:08:56;;;;;;;11.68;10.52;;;;;;;;;;5095950;28;20040;-41
2021/01/20 20:11:23;;;;;;;6.63;5.72;;;;;;;;;;5097814;28;20111;-43
2021/01/20 20:13:48;;;;;;;11.15;6.95;;;;;;;;;;5095185;28;20083;-42
2021/01/20 20:16:13;;;;;;;8.50;4.28;;;;;;;;;;5106103;28;20102;-42
2021/01/20 20:18:39;;;;;;;11.82;7.15;;;;;;;;;;5083389;28;20537;-39
2021/01/20 20:21:04;;;;;;;11.07;4.45;;;;;;;;;;5083231;28;20393;-40
2021/01/20 20:23:30;;;;;;;8.00;7.32;;;;;;;;;;5087174;28;20027;-43
2021/01/20 20:25:55;;;;;;;5.88;4.95;;;;;;;;;;5025949;28;20144;-48
2021/01/20 20:28:21;;;;;;;6.93;4.50;;;;;;;;;;5026032;28;20048;-42
2021/01/20 20:30:46;;;;;;;4.43;4.00;;;;;;;;;;5027362;28;20415;-45
2021/01/20 20:33:13;;;;;;;12.65;5.80;;;;;;;;;;5023750;28;20025;-40
2021/01/20 20:35:39;;;;;;;4.68;3.75;;;;;;;;;;5009581;28;20458;-41
2021/01/20 20:38:04;;;;;;;12.48;4.35;;;;;;;;;;5015875;28;20022;-44
2021/01/20 20:40:29;;;;;;;5.47;3.42;;;;;;;;;;5010620;28;20033;-46
2021/01/20 20:42:55;;;;;;;5.43;3.90;;;;;;;;;;5010630;28;20030;-42
2021/01/20 20:45:20;;;;;;;6.45;3.20;;;;;;;;;;5019820;28;20041;-44
2021/01/20 20:47:45;;;;;;;14.23;5.30;;;;;;;;;;5029632;28;20030;-44
2021/01/20 20:50:11;;;;;;;10.38;5.28;;;;;;;;;;5021728;28;20033;-43
2021/01/20 20:52:36;;;;;;;14.85;5.47;;;;;;;;;;5021563;28;20032;-48
2021/01/20 20:55:02;;;;;;;6.93;5.30;;;;;;;;;;5010081;28;20458;-42
2021/01/20 20:57:28;;;;;;;7.38;4.97;;;;;;;;;;5009871;28;20467;-42
2021/01/20 20:59:53;;;;;;;6.65;4.22;;;;;;;;;;5014543;28;20908;-45
2021/01/20 21:02:18;;;;;;;7.60;4.10;;;;;;;;;;5010357;28;20034;-42
2021/01/20 21:04:43;;;;;;;6.20;4.10;;;;;;;;;;5019997;28;20143;-41
2021/01/20 21:07:09;;;;;;;5.47;3.67;;;;;;;;;;5009940;28;20033;-41
2021/01/20 21:09:35;;;;;;;11.27;3.92;;;;;;;;;;5020082;28;20065;-46
2021/01/20 21:12:01;;;;;;;9.90;3.35;;;;;;;;;;5012384;28;20068;-44
2021/01/20 21:14:26;;;;;;;9.27;3.13;;;;;;;;;;5020301;28;20132;-41
2021/01/20 21:16:52;;;;;;;3.42;3.05;;;;;;;;;;5011823;28;20084;-39
2021/01/20 21:19:17;;;;;;;5.20;4.07;;;;;;;;;;5013154;28;20072;-41
2021/01/20 21:21:42;;;;;;;4.55;3.05;;;;;;;;;;5013674;28;20360;-40
2021/01/20 21:24:08;;;;;;;4.22;3.20;;;;;;;;;;5013862;28;20067;-44
2021/01/20 21:26:33;;;;;;;4.47;3.75;;;;;;;;;;5014155;28;20032;-44
2021/01/20 21:28:58;;;;;;;12.10;3.80;;;;;;;;;;5011991;28;20787;-43
2021/01/20 21:31:24;;;;;;;8.38;5.57;;;;;;;;;;5012738;28;20031;-40
2021/01/20 21:33:49;;;;;;;8.52;4.40;;;;;;;;;;5014353;28;20046;-45
2021/01/20 21:36:14;;;;;;;4.78;4.25;;;;;;;;;;5017754;28;20030;-40
2021/01/20 21:38:40;;;;;;;12.55;4.78;;;;;;;;;;5018675;28;20053;-42
2021/01/20 21:41:05;;;;;;;11.60;5.53;;;;;;;;;;5014619;28;20033;-40
2021/01/20 21:43:30;;;;;;;7.93;4.03;;;;;;;;;;5015130;28;20273;-42
2021/01/20 21:45:56;;;;;;;7.95;3.40;;;;;;;;;;5012740;28;20029;-41
2021/01/20 21:48:21;;;;;;;8.00;6.53;;;;;;;;;;5014547;28;20145;-45
2021/01/20 21:50:46;;;;;;;4.55;3.80;;;;;;;;;;5015924;28;20035;-44
2021/01/20 21:53:12;;;;;;;10.13;4.15;;;;;;;;;;5033977;28;20040;-42
2021/01/20 21:55:37;;;;;;;3.22;2.30;;;;;;;;;;5015982;28;20367;-44
2021/01/20 21:58:02;;;;;;;6.68;3.47;;;;;;;;;;5014560;28;20474;-42
2021/01/20 22:00:31;;;;;;;5.45;3.60;;;;;;;;;;5017061;28;20060;-41
2021/01/20 22:02:56;;;;;;;4.47;3.92;;;;;;;;;;5016392;28;20029;-40
2021/01/20 22:05:23;;;;;;;6.10;2.97;;;;;;;;;;5020576;28;20130;-45
2021/01/20 22:07:48;;;;;;;3.65;3.20;;;;;;;;;;5017693;28;20054;-41
2021/01/20 22:10:13;;;;;;;6.43;3.38;;;;;;;;;;5014300;28;20062;-43
2021/01/20 22:12:39;;;;;;;14.25;3.67;;;;;;;;;;5016993;28;20033;-41
2021/01/20 22:15:08;;;;;;;6.13;3.10;;;;;;;;;;5010725;28;20045;-42
2021/01/20 22:17:33;;;;;;;5.55;2.55;;;;;;;;;;5014062;28;20030;-45
2021/01/20 22:19:58;;;;;;;3.42;2.75;;;;;;;;;;5018905;28;20112;-43
2021/01/20 22:22:24;;;;;;;7.03;3.25;;;;;;;;;;5018206;28;20056;-41
2021/01/20 22:24:50;;;;;;;4.35;3.42;;;;;;;;;;5022284;28;20681;-44
2021/01/20 22:27:15;;;;;;;6.10;3.90;;;;;;;;;;5017236;28;20526;-43
2021/01/20 22:29:40;;;;;;;10.18;6.78;;;;;;;;;;5018942;28;20041;-44
2021/01/20 22:32:06;;;;;;;6.20;4.93;;;;;;;;;;5015482;28;20030;-41
2021/01/20 22:34:31;;;;;;;6.40;5.10;;;;;;;;;;5018250;28;20056;-44
2021/01/20 22:36:56;;;;;;;5.57;5.00;;;;;;;;;;5021801;28;20076;-43
2021/01/20 22:39:22;;;;;;;13.07;6.03;;;;;;;;;;5017648;28;20034;-41
2021/01/20 22:41:47;;;;;;;5.28;3.95;;;;;;;;;;5014736;28;20473;-42
2021/01/20 22:44:12;;;;;;;10.85;3.72;;;;;;;;;;5016348;28;20054;-41
2021/01/20 22:46:37;;;;;;;14.25;4.38;;;;;;;;;;5017213;28;20025;-43
2021/01/20 22:49:03;;;;;;;7.00;4.07;;;;;;;;;;5015359;28;20530;-41
2021/01/20 22:51:31;;;;;;;7.90;3.70;;;;;;;;;;5017781;28;20557;-39
2021/01/20 22:53:56;;;;;;;8.13;3.40;;;;;;;;;;5019884;28;20121;-41
2021/01/20 22:56:22;;;;;;;6.55;4.70;;;;;;;;;;5014700;28;20109;-40
2021/01/20 22:58:47;;;;;;;9.45;2.72;;;;;;;;;;5015779;28;20037;-41
2021/01/20 23:01:12;;;;;;;6.22;4.13;;;;;;;;;;5016055;28;20022;-38
2021/01/20 23:03:37;;;;;;;6.30;3.25;;;;;;;;;;5014565;28;20049;-39
2021/01/20 23:06:03;;;;;;;13.98;5.53;;;;;;;;;;5014502;28;20025;-43
2021/01/20 23:08:28;;;;;;;8.63;4.20;;;;;;;;;;5024311;28;20037;-41
2021/01/20 23:10:53;;;;;;;5.53;3.78;;;;;;;;;;5014093;28;20030;-39
2021/01/20 23:13:19;;;;;;;7.25;3.78;;;;;;;;;;5016334;28;20034;-44
2021/01/20 23:15:44;;;;;;;18.48;5.70;;;;;;;;;;5015737;28;20030;-42
2021/01/20 23:18:10;;;;;;;6.97;4.55;;;;;;;;;;5015489;28;20026;-43
2021/01/20 23:20:35;;;;;;;10.00;5.13;;;;;;;;;;5017101;28;20463;-41
2021/01/20 23:23:17;;;;;;;14.57;5.18;;;;;;;;;;5012594;28;20064;-42
2021/01/20 23:25:42;;;;;;;16.00;5.78;;;;;;;;;;5012911;28;20041;-40
2021/01/20 23:28:08;;;;;;;8.48;5.07;;;;;;;;;;5017429;28;20030;-40
2021/01/20 23:30:33;;;;;;;7.05;4.70;;;;;;;;;;5024136;28;20499;-44
2021/01/20 23:32:59;;;;;;;10.77;5.68;;;;;;;;;;5022382;28;20108;-41
2021/01/20 23:35:24;;;;;;;5.57;4.93;;;;;;;;;;5019764;28;20349;-42
2021/01/20 23:37:50;;;;;;;9.35;4.95;;;;;;;;;;5022008;28;20514;-40
2021/01/20 23:40:15;;;;;;;8.68;5.35;;;;;;;;;;5020039;28;20041;-41
2021/01/20 23:42:41;;;;;;;5.38;4.30;;;;;;;;;;5021975;28;20025;-46
2021/01/20 23:45:07;;;;;;;13.23;4.75;;;;;;;;;;5016039;28;20045;-39
2021/01/20 23:47:32;;;;;;;14.88;7.13;;;;;;;;;;5018518;28;20034;-42
2021/01/20 23:49:57;;;;;;;6.40;5.80;;;;;;;;;;5019136;28;20026;-41
2021/01/20 23:52:23;;;;;;;8.20;5.50;;;;;;;;;;5022402;28;20792;-43
2021/01/20 23:54:48;;;;;;;9.95;6.95;;;;;;;;;;5020909;28;20470;-42
2021/01/20 23:57:13;;;;;;;9.85;6.82;;;;;;;;;;5021808;28;20041;-40
2021/01/20 23:59:38;;;;;;;9.65;6.25;;;;;;;;;;5020068;28;20033;-45
